sensor_id;sensor_type;location;lat;lon;timestamp;temperature;humidity
20574;DHT22;10445;50.216;7.912;2023-07-13T00:01:14;18.10;1.00
20574;DHT22;10445;50.216;7.912;2023-07-13T00:03:42;18.10;1.00
20574;DHT22;10445;50.216;7.912;2023-07-13T00:06:11;18.10;1.00
20574;DHT22;10445;50.216;7.912;2023-07-13T00:08:40;18.10;1.00
20574;DHT22;10445;50.216;7.912;2023-07-13T00:11:08;18.10;1.00
20574;DHT22;10445;50.216;7.912;2023-07-13T00:13:38;18.10;1.00
20574;DHT22;10445;50.216;7.912;2023-07-13T00:16:10;18.10;1.00
20574;DHT22;10445;50.216;7.912;2023-07-13T00:18:39;18.10;1.00
20574;DHT22;10445;50.216;7.912;2023-07-13T00:21:08;18.10;1.00
20574;DHT22;10445;50.216;7.912;2023-07-13T00:23:38;18.10;1.00
20574;DHT22;10445;50.216;7.912;2023-07-13T00:26:08;18.10;1.00
20574;DHT22;10445;50.216;7.912;2023-07-13T00:28:38;18.10;1.00
20574;DHT22;10445;50.216;7.912;2023-07-13T00:31:11;18.10;1.00
20574;DHT22;10445;50.216;7.912;2023-07-13T00:33:41;18.10;1.00
20574;DHT22;10445;50.216;7.912;2023-07-13T00:36:10;18.10;1.00
20574;DHT22;10445;50.216;7.912;2023-07-13T00:38:39;18.10;1.00
20574;DHT22;10445;50.216;7.912;2023-07-13T00:41:08;18.10;1.00
20574;DHT22;10445;50.216;7.912;2023-07-13T00:43:36;18.10;1.00
20574;DHT22;10445;50.216;7.912;2023-07-13T00:46:25;18.00;1.00
20574;DHT22;10445;50.216;7.912;2023-07-13T00:48:56;18.00;1.00
20574;DHT22;10445;50.216;7.912;2023-07-13T00:51:31;17.90;1.00
20574;DHT22;10445;50.216;7.912;2023-07-13T00:54:05;17.90;1.00
20574;DHT22;10445;50.216;7.912;2023-07-13T00:56:35;17.80;1.00
20574;DHT22;10445;50.216;7.912;2023-07-13T00:59:06;17.80;1.00
20574;DHT22;10445;50.216;7.912;2023-07-13T01:01:37;17.70;1.00
20574;DHT22;10445;50.216;7.912;2023-07-13T01:04:06;17.70;1.00
20574;DHT22;10445;50.216;7.912;2023-07-13T01:06:36;17.60;1.00
20574;DHT22;10445;50.216;7.912;2023-07-13T01:09:07;17.60;1.00
20574;DHT22;10445;50.216;7.912;2023-07-13T01:11:37;17.60;1.00
20574;DHT22;10445;50.216;7.912;2023-07-13T01:14:06;17.50;1.00
20574;DHT22;10445;50.216;7.912;2023-07-13T01:16:37;17.50;1.00
20574;DHT22;10445;50.216;7.912;2023-07-13T01:19:15;17.40;1.00
20574;DHT22;10445;50.216;7.912;2023-07-13T01:21:51;17.40;1.00
20574;DHT22;10445;50.216;7.912;2023-07-13T01:24:20;17.40;1.00
20574;DHT22;10445;50.216;7.912;2023-07-13T01:26:48;17.30;1.00
20574;DHT22;10445;50.216;7.912;2023-07-13T01:29:17;17.30;1.00
20574;DHT22;10445;50.216;7.912;2023-07-13T01:31:45;17.10;1.00
20574;DHT22;10445;50.216;7.912;2023-07-13T01:34:14;17.00;1.00
20574;DHT22;10445;50.216;7.912;2023-07-13T01:36:42;16.90;1.00
20574;DHT22;10445;50.216;7.912;2023-07-13T01:39:12;16.80;1.00
20574;DHT22;10445;50.216;7.912;2023-07-13T01:41:41;16.70;1.00
20574;DHT22;10445;50.216;7.912;2023-07-13T01:44:10;16.60;1.00
20574;DHT22;10445;50.216;7.912;2023-07-13T01:46:38;16.50;1.00
20574;DHT22;10445;50.216;7.912;2023-07-13T01:49:07;16.40;1.00
20574;DHT22;10445;50.216;7.912;2023-07-13T01:51:35;16.40;1.00
20574;DHT22;10445;50.216;7.912;2023-07-13T01:54:04;16.30;1.00
20574;DHT22;10445;50.216;7.912;2023-07-13T01:56:34;16.40;1.00
20574;DHT22;10445;50.216;7.912;2023-07-13T01:59:02;16.30;1.00
20574;DHT22;10445;50.216;7.912;2023-07-13T02:01:31;16.30;1.00
20574;DHT22;10445;50.216;7.912;2023-07-13T02:03:59;16.20;1.00
20574;DHT22;10445;50.216;7.912;2023-07-13T02:06:28;16.20;1.00
20574;DHT22;10445;50.216;7.912;2023-07-13T02:08:57;16.20;1.00
20574;DHT22;10445;50.216;7.912;2023-07-13T02:11:25;16.10;1.00
20574;DHT22;10445;50.216;7.912;2023-07-13T02:14:01;16.00;1.00
20574;DHT22;10445;50.216;7.912;2023-07-13T02:16:30;16.00;1.00
20574;DHT22;10445;50.216;7.912;2023-07-13T02:18:59;15.90;1.00
20574;DHT22;10445;50.216;7.912;2023-07-13T02:21:28;15.90;1.00
20574;DHT22;10445;50.216;7.912;2023-07-13T02:23:56;15.90;1.00
20574;DHT22;10445;50.216;7.912;2023-07-13T02:26:26;15.80;1.00
20574;DHT22;10445;50.216;7.912;2023-07-13T02:28:55;15.80;1.00
20574;DHT22;10445;50.216;7.912;2023-07-13T02:31:25;15.70;1.00
20574;DHT22;10445;50.216;7.912;2023-07-13T02:33:53;15.70;1.00
20574;DHT22;10445;50.216;7.912;2023-07-13T02:36:22;15.60;1.00
20574;DHT22;10445;50.216;7.912;2023-07-13T02:38:50;15.60;1.00
20574;DHT22;10445;50.216;7.912;2023-07-13T02:41:19;15.50;1.00
20574;DHT22;10445;50.216;7.912;2023-07-13T02:43:47;15.50;1.00
20574;DHT22;10445;50.216;7.912;2023-07-13T02:46:16;15.50;1.00
20574;DHT22;10445;50.216;7.912;2023-07-13T02:48:48;15.50;1.00
20574;DHT22;10445;50.216;7.912;2023-07-13T02:51:16;15.40;1.00
20574;DHT22;10445;50.216;7.912;2023-07-13T02:53:45;15.30;1.00
20574;DHT22;10445;50.216;7.912;2023-07-13T02:56:13;15.30;1.00
20574;DHT22;10445;50.216;7.912;2023-07-13T02:58:43;15.20;1.00
20574;DHT22;10445;50.216;7.912;2023-07-13T03:01:12;15.10;1.00
20574;DHT22;10445;50.216;7.912;2023-07-13T03:03:47;15.00;1.00
20574;DHT22;10445;50.216;7.912;2023-07-13T03:06:16;14.90;1.00
20574;DHT22;10445;50.216;7.912;2023-07-13T03:08:45;14.90;1.00
20574;DHT22;10445;50.216;7.912;2023-07-13T03:11:16;14.90;1.00
20574;DHT22;10445;50.216;7.912;2023-07-13T03:13:45;14.80;1.00
20574;DHT22;10445;50.216;7.912;2023-07-13T03:16:14;14.60;1.00
20574;DHT22;10445;50.216;7.912;2023-07-13T03:18:48;14.60;1.00
20574;DHT22;10445;50.216;7.912;2023-07-13T03:21:16;14.50;1.00
20574;DHT22;10445;50.216;7.912;2023-07-13T03:23:45;14.50;1.00
20574;DHT22;10445;50.216;7.912;2023-07-13T03:26:17;14.50;1.00
20574;DHT22;10445;50.216;7.912;2023-07-13T03:28:46;14.50;1.00
20574;DHT22;10445;50.216;7.912;2023-07-13T03:31:17;14.50;1.00
20574;DHT22;10445;50.216;7.912;2023-07-13T03:33:47;14.50;1.00
20574;DHT22;10445;50.216;7.912;2023-07-13T03:36:17;14.40;1.00
20574;DHT22;10445;50.216;7.912;2023-07-13T03:38:47;14.50;1.00
20574;DHT22;10445;50.216;7.912;2023-07-13T03:41:16;14.50;1.00
20574;DHT22;10445;50.216;7.912;2023-07-13T03:43:45;14.60;1.00
20574;DHT22;10445;50.216;7.912;2023-07-13T03:46:15;14.60;1.00
20574;DHT22;10445;50.216;7.912;2023-07-13T03:48:45;14.50;1.00
20574;DHT22;10445;50.216;7.912;2023-07-13T03:51:17;14.60;1.00
20574;DHT22;10445;50.216;7.912;2023-07-13T03:53:46;14.60;1.00
20574;DHT22;10445;50.216;7.912;2023-07-13T03:56:16;14.60;1.00
20574;DHT22;10445;50.216;7.912;2023-07-13T03:58:46;14.60;1.00
20574;DHT22;10445;50.216;7.912;2023-07-13T04:01:17;14.50;1.00
20574;DHT22;10445;50.216;7.912;2023-07-13T04:03:45;14.50;1.00
20574;DHT22;10445;50.216;7.912;2023-07-13T04:06:18;14.40;1.00
20574;DHT22;10445;50.216;7.912;2023-07-13T04:08:49;14.40;1.00
20574;DHT22;10445;50.216;7.912;2023-07-13T04:11:18;14.50;1.20
20574;DHT22;10445;50.216;7.912;2023-07-13T04:13:48;14.50;1.20
20574;DHT22;10445;50.216;7.912;2023-07-13T04:16:17;14.50;1.30
20574;DHT22;10445;50.216;7.912;2023-07-13T04:18:47;14.50;1.50
20574;DHT22;10445;50.216;7.912;2023-07-13T04:21:18;14.50;1.60
20574;DHT22;10445;50.216;7.912;2023-07-13T04:23:46;14.60;1.90
20574;DHT22;10445;50.216;7.912;2023-07-13T04:26:15;14.50;2.10
20574;DHT22;10445;50.216;7.912;2023-07-13T04:28:43;14.50;2.50
20574;DHT22;10445;50.216;7.912;2023-07-13T04:31:12;14.50;2.80
20574;DHT22;10445;50.216;7.912;2023-07-13T04:33:40;14.50;2.80
20574;DHT22;10445;50.216;7.912;2023-07-13T04:36:10;14.60;3.00
20574;DHT22;10445;50.216;7.912;2023-07-13T04:38:40;14.60;3.00
20574;DHT22;10445;50.216;7.912;2023-07-13T04:41:08;14.60;3.20
20574;DHT22;10445;50.216;7.912;2023-07-13T04:43:37;14.70;3.50
20574;DHT22;10445;50.216;7.912;2023-07-13T04:46:06;14.70;3.60
20574;DHT22;10445;50.216;7.912;2023-07-13T04:48:35;14.70;3.40
20574;DHT22;10445;50.216;7.912;2023-07-13T04:51:04;14.80;3.30
20574;DHT22;10445;50.216;7.912;2023-07-13T04:53:33;14.90;3.40
20574;DHT22;10445;50.216;7.912;2023-07-13T04:56:04;14.90;3.10
20574;DHT22;10445;50.216;7.912;2023-07-13T04:58:33;14.90;3.00
20574;DHT22;10445;50.216;7.912;2023-07-13T05:01:02;15.00;2.20
20574;DHT22;10445;50.216;7.912;2023-07-13T05:03:31;15.10;2.20
20574;DHT22;10445;50.216;7.912;2023-07-13T05:06:02;15.10;2.10
20574;DHT22;10445;50.216;7.912;2023-07-13T05:08:34;15.20;2.00
20574;DHT22;10445;50.216;7.912;2023-07-13T05:11:05;15.20;2.20
20574;DHT22;10445;50.216;7.912;2023-07-13T05:13:34;15.20;1.90
20574;DHT22;10445;50.216;7.912;2023-07-13T05:16:04;15.30;1.80
20574;DHT22;10445;50.216;7.912;2023-07-13T05:18:35;15.30;2.10
20574;DHT22;10445;50.216;7.912;2023-07-13T05:21:09;15.40;1.90
20574;DHT22;10445;50.216;7.912;2023-07-13T05:23:39;15.40;1.40
20574;DHT22;10445;50.216;7.912;2023-07-13T05:26:10;15.50;1.20
20574;DHT22;10445;50.216;7.912;2023-07-13T05:28:42;15.50;1.20
20574;DHT22;10445;50.216;7.912;2023-07-13T05:31:11;15.60;1.00
20574;DHT22;10445;50.216;7.912;2023-07-13T05:33:40;15.70;1.00
20574;DHT22;10445;50.216;7.912;2023-07-13T05:36:08;15.70;1.00
20574;DHT22;10445;50.216;7.912;2023-07-13T05:38:37;15.80;1.00
20574;DHT22;10445;50.216;7.912;2023-07-13T05:41:05;15.90;1.00
20574;DHT22;10445;50.216;7.912;2023-07-13T05:43:36;16.00;1.00
20574;DHT22;10445;50.216;7.912;2023-07-13T05:46:04;16.10;1.00
20574;DHT22;10445;50.216;7.912;2023-07-13T05:48:32;16.10;1.00
20574;DHT22;10445;50.216;7.912;2023-07-13T05:51:02;16.20;1.00
20574;DHT22;10445;50.216;7.912;2023-07-13T05:53:31;16.30;1.00
20574;DHT22;10445;50.216;7.912;2023-07-13T05:55:59;16.50;1.00
20574;DHT22;10445;50.216;7.912;2023-07-13T05:58:29;16.70;1.00
20574;DHT22;10445;50.216;7.912;2023-07-13T06:01:04;17.10;1.00
20574;DHT22;10445;50.216;7.912;2023-07-13T06:03:33;17.10;1.00
20574;DHT22;10445;50.216;7.912;2023-07-13T06:06:02;17.30;1.00
20574;DHT22;10445;50.216;7.912;2023-07-13T06:08:31;17.40;1.00
20574;DHT22;10445;50.216;7.912;2023-07-13T06:11:04;17.60;1.00
20574;DHT22;10445;50.216;7.912;2023-07-13T06:13:33;17.60;1.00
20574;DHT22;10445;50.216;7.912;2023-07-13T06:16:04;17.70;1.00
20574;DHT22;10445;50.216;7.912;2023-07-13T06:18:33;17.80;1.00
20574;DHT22;10445;50.216;7.912;2023-07-13T06:21:05;17.90;1.00
20574;DHT22;10445;50.216;7.912;2023-07-13T06:23:33;18.00;1.00
20574;DHT22;10445;50.216;7.912;2023-07-13T06:26:02;18.10;1.00
20574;DHT22;10445;50.216;7.912;2023-07-13T06:28:31;18.30;1.00
20574;DHT22;10445;50.216;7.912;2023-07-13T06:31:01;18.40;1.00
20574;DHT22;10445;50.216;7.912;2023-07-13T06:33:31;18.50;1.00
20574;DHT22;10445;50.216;7.912;2023-07-13T06:36:00;18.60;1.00
20574;DHT22;10445;50.216;7.912;2023-07-13T06:38:29;18.70;1.00
20574;DHT22;10445;50.216;7.912;2023-07-13T06:40:57;18.80;1.00
20574;DHT22;10445;50.216;7.912;2023-07-13T06:43:26;18.90;1.00
20574;DHT22;10445;50.216;7.912;2023-07-13T06:45:55;19.10;1.00
20574;DHT22;10445;50.216;7.912;2023-07-13T06:48:24;19.20;1.00
20574;DHT22;10445;50.216;7.912;2023-07-13T06:50:54;19.20;1.00
20574;DHT22;10445;50.216;7.912;2023-07-13T06:53:23;19.30;1.00
20574;DHT22;10445;50.216;7.912;2023-07-13T06:55:52;19.20;1.00
20574;DHT22;10445;50.216;7.912;2023-07-13T06:58:21;19.10;1.00
20574;DHT22;10445;50.216;7.912;2023-07-13T07:00:50;19.10;1.00
20574;DHT22;10445;50.216;7.912;2023-07-13T07:03:20;19.20;1.00
20574;DHT22;10445;50.216;7.912;2023-07-13T07:05:49;19.40;1.00
20574;DHT22;10445;50.216;7.912;2023-07-13T07:08:19;19.50;1.00
20574;DHT22;10445;50.216;7.912;2023-07-13T07:10:47;19.50;1.00
20574;DHT22;10445;50.216;7.912;2023-07-13T07:13:21;19.50;1.00
20574;DHT22;10445;50.216;7.912;2023-07-13T07:15:50;19.60;1.00
20574;DHT22;10445;50.216;7.912;2023-07-13T07:18:19;19.60;1.00
20574;DHT22;10445;50.216;7.912;2023-07-13T07:20:49;19.50;1.00
20574;DHT22;10445;50.216;7.912;2023-07-13T07:23:19;19.40;1.00
20574;DHT22;10445;50.216;7.912;2023-07-13T07:25:47;19.30;1.00
20574;DHT22;10445;50.216;7.912;2023-07-13T07:28:16;19.20;1.00
20574;DHT22;10445;50.216;7.912;2023-07-13T07:30:52;19.20;1.00
20574;DHT22;10445;50.216;7.912;2023-07-13T07:33:40;19.20;1.00
20574;DHT22;10445;50.216;7.912;2023-07-13T07:36:10;19.20;1.00
20574;DHT22;10445;50.216;7.912;2023-07-13T07:38:43;19.20;1.00
20574;DHT22;10445;50.216;7.912;2023-07-13T07:41:12;19.20;1.00
20574;DHT22;10445;50.216;7.912;2023-07-13T07:43:43;19.30;1.00
20574;DHT22;10445;50.216;7.912;2023-07-13T07:46:12;19.40;1.00
20574;DHT22;10445;50.216;7.912;2023-07-13T07:48:41;19.50;1.00
20574;DHT22;10445;50.216;7.912;2023-07-13T07:51:09;19.50;1.00
20574;DHT22;10445;50.216;7.912;2023-07-13T07:53:38;19.40;1.00
20574;DHT22;10445;50.216;7.912;2023-07-13T07:56:08;19.40;1.00
20574;DHT22;10445;50.216;7.912;2023-07-13T07:58:39;19.30;1.00
20574;DHT22;10445;50.216;7.912;2023-07-13T08:01:11;19.40;1.00
20574;DHT22;10445;50.216;7.912;2023-07-13T08:03:42;19.50;1.00
20574;DHT22;10445;50.216;7.912;2023-07-13T08:06:13;19.60;1.00
20574;DHT22;10445;50.216;7.912;2023-07-13T08:09:02;19.70;1.00
20574;DHT22;10445;50.216;7.912;2023-07-13T08:11:34;19.90;1.00
20574;DHT22;10445;50.216;7.912;2023-07-13T08:14:05;20.10;1.00
20574;DHT22;10445;50.216;7.912;2023-07-13T08:16:34;20.50;1.00
20574;DHT22;10445;50.216;7.912;2023-07-13T08:19:02;20.70;1.00
20574;DHT22;10445;50.216;7.912;2023-07-13T08:21:31;20.90;1.00
20574;DHT22;10445;50.216;7.912;2023-07-13T08:23:59;21.00;1.00
20574;DHT22;10445;50.216;7.912;2023-07-13T08:26:28;21.20;1.00
20574;DHT22;10445;50.216;7.912;2023-07-13T08:28:58;21.30;1.00
20574;DHT22;10445;50.216;7.912;2023-07-13T08:31:26;21.30;1.00
20574;DHT22;10445;50.216;7.912;2023-07-13T08:33:55;21.20;1.00
20574;DHT22;10445;50.216;7.912;2023-07-13T08:36:24;21.20;1.00
20574;DHT22;10445;50.216;7.912;2023-07-13T08:38:53;21.30;1.00
20574;DHT22;10445;50.216;7.912;2023-07-13T08:41:23;21.30;1.00
20574;DHT22;10445;50.216;7.912;2023-07-13T08:43:54;21.30;1.00
20574;DHT22;10445;50.216;7.912;2023-07-13T08:46:28;21.30;1.00
20574;DHT22;10445;50.216;7.912;2023-07-13T08:49:04;21.30;1.00
20574;DHT22;10445;50.216;7.912;2023-07-13T08:51:38;21.50;1.00
20574;DHT22;10445;50.216;7.912;2023-07-13T08:54:19;21.60;1.00
20574;DHT22;10445;50.216;7.912;2023-07-13T08:56:50;21.80;1.00
20574;DHT22;10445;50.216;7.912;2023-07-13T08:59:24;21.80;1.00
20574;DHT22;10445;50.216;7.912;2023-07-13T09:02:15;21.80;1.00
20574;DHT22;10445;50.216;7.912;2023-07-13T09:04:49;21.90;1.00
20574;DHT22;10445;50.216;7.912;2023-07-13T09:07:29;22.00;1.00
20574;DHT22;10445;50.216;7.912;2023-07-13T09:10:12;22.20;1.00
20574;DHT22;10445;50.216;7.912;2023-07-13T09:12:52;22.40;1.00
20574;DHT22;10445;50.216;7.912;2023-07-13T09:15:28;22.40;1.00
20574;DHT22;10445;50.216;7.912;2023-07-13T09:18:03;22.30;1.00
20574;DHT22;10445;50.216;7.912;2023-07-13T09:20:35;22.30;1.00
20574;DHT22;10445;50.216;7.912;2023-07-13T09:23:10;22.50;1.00
20574;DHT22;10445;50.216;7.912;2023-07-13T09:25:41;22.60;1.00
20574;DHT22;10445;50.216;7.912;2023-07-13T09:28:17;22.60;1.00
20574;DHT22;10445;50.216;7.912;2023-07-13T09:30:51;22.80;1.00
20574;DHT22;10445;50.216;7.912;2023-07-13T09:33:22;22.80;1.00
20574;DHT22;10445;50.216;7.912;2023-07-13T09:35:50;22.90;1.00
20574;DHT22;10445;50.216;7.912;2023-07-13T09:38:21;23.10;1.00
20574;DHT22;10445;50.216;7.912;2023-07-13T09:40:59;23.00;1.00
20574;DHT22;10445;50.216;7.912;2023-07-13T09:43:29;22.90;1.00
20574;DHT22;10445;50.216;7.912;2023-07-13T09:45:57;22.90;1.00
20574;DHT22;10445;50.216;7.912;2023-07-13T09:48:34;23.00;1.00
20574;DHT22;10445;50.216;7.912;2023-07-13T09:51:10;23.50;1.00
20574;DHT22;10445;50.216;7.912;2023-07-13T09:53:41;23.70;1.00
20574;DHT22;10445;50.216;7.912;2023-07-13T09:56:20;23.80;1.00
20574;DHT22;10445;50.216;7.912;2023-07-13T09:58:49;23.50;1.00
20574;DHT22;10445;50.216;7.912;2023-07-13T10:01:31;23.60;1.00
20574;DHT22;10445;50.216;7.912;2023-07-13T10:04:02;23.80;1.00
20574;DHT22;10445;50.216;7.912;2023-07-13T10:06:39;24.10;1.00
20574;DHT22;10445;50.216;7.912;2023-07-13T10:09:10;24.50;1.00
20574;DHT22;10445;50.216;7.912;2023-07-13T10:11:40;24.60;1.00
20574;DHT22;10445;50.216;7.912;2023-07-13T10:14:14;24.60;1.00
20574;DHT22;10445;50.216;7.912;2023-07-13T10:16:46;24.60;1.00
20574;DHT22;10445;50.216;7.912;2023-07-13T10:19:21;24.40;1.00
20574;DHT22;10445;50.216;7.912;2023-07-13T10:21:54;24.10;1.00
20574;DHT22;10445;50.216;7.912;2023-07-13T10:24:25;24.00;1.00
20574;DHT22;10445;50.216;7.912;2023-07-13T10:26:57;23.70;1.00
20574;DHT22;10445;50.216;7.912;2023-07-13T10:29:36;23.60;1.00
20574;DHT22;10445;50.216;7.912;2023-07-13T10:32:09;23.80;1.00
20574;DHT22;10445;50.216;7.912;2023-07-13T10:34:40;23.70;1.00
20574;DHT22;10445;50.216;7.912;2023-07-13T10:37:18;23.60;1.00
20574;DHT22;10445;50.216;7.912;2023-07-13T10:39:51;23.50;1.00
20574;DHT22;10445;50.216;7.912;2023-07-13T10:42:26;23.30;1.00
20574;DHT22;10445;50.216;7.912;2023-07-13T10:44:55;23.40;1.00
20574;DHT22;10445;50.216;7.912;2023-07-13T10:47:24;23.50;1.00
20574;DHT22;10445;50.216;7.912;2023-07-13T10:49:58;23.50;1.00
20574;DHT22;10445;50.216;7.912;2023-07-13T10:52:46;23.50;1.00
20574;DHT22;10445;50.216;7.912;2023-07-13T10:55:33;23.80;1.00
20574;DHT22;10445;50.216;7.912;2023-07-13T10:58:18;24.00;1.00
20574;DHT22;10445;50.216;7.912;2023-07-13T11:00:49;23.70;1.00
20574;DHT22;10445;50.216;7.912;2023-07-13T11:03:20;23.70;1.00
20574;DHT22;10445;50.216;7.912;2023-07-13T11:06:06;23.70;1.00
20574;DHT22;10445;50.216;7.912;2023-07-13T11:08:38;23.40;1.00
20574;DHT22;10445;50.216;7.912;2023-07-13T11:11:37;23.50;1.00
20574;DHT22;10445;50.216;7.912;2023-07-13T11:14:30;23.90;1.00
20574;DHT22;10445;50.216;7.912;2023-07-13T11:16:59;23.80;1.00
20574;DHT22;10445;50.216;7.912;2023-07-13T11:19:51;23.50;1.00
20574;DHT22;10445;50.216;7.912;2023-07-13T11:22:40;23.30;1.00
20574;DHT22;10445;50.216;7.912;2023-07-13T11:25:26;23.10;1.00
20574;DHT22;10445;50.216;7.912;2023-07-13T11:28:20;22.90;1.00
20574;DHT22;10445;50.216;7.912;2023-07-13T11:30:59;22.90;1.00
20574;DHT22;10445;50.216;7.912;2023-07-13T11:33:45;23.00;1.00
20574;DHT22;10445;50.216;7.912;2023-07-13T11:36:17;23.10;1.00
20574;DHT22;10445;50.216;7.912;2023-07-13T11:38:57;23.10;1.00
20574;DHT22;10445;50.216;7.912;2023-07-13T11:41:30;23.10;1.00
20574;DHT22;10445;50.216;7.912;2023-07-13T11:44:07;22.90;1.00
20574;DHT22;10445;50.216;7.912;2023-07-13T11:46:43;22.70;1.00
20574;DHT22;10445;50.216;7.912;2023-07-13T11:49:16;22.40;1.00
20574;DHT22;10445;50.216;7.912;2023-07-13T11:51:45;22.40;1.00
20574;DHT22;10445;50.216;7.912;2023-07-13T11:54:26;22.20;1.00
20574;DHT22;10445;50.216;7.912;2023-07-13T11:56:55;22.20;1.00
20574;DHT22;10445;50.216;7.912;2023-07-13T11:59:31;22.10;1.00
20574;DHT22;10445;50.216;7.912;2023-07-13T12:02:00;21.90;1.00
20574;DHT22;10445;50.216;7.912;2023-07-13T12:04:32;21.90;1.00
20574;DHT22;10445;50.216;7.912;2023-07-13T12:07:05;21.90;1.00
20574;DHT22;10445;50.216;7.912;2023-07-13T12:09:37;21.90;1.00
20574;DHT22;10445;50.216;7.912;2023-07-13T12:12:11;22.00;1.00
20574;DHT22;10445;50.216;7.912;2023-07-13T12:14:43;22.10;1.00
20574;DHT22;10445;50.216;7.912;2023-07-13T12:17:16;22.20;1.00
20574;DHT22;10445;50.216;7.912;2023-07-13T12:19:48;22.40;1.00
20574;DHT22;10445;50.216;7.912;2023-07-13T12:22:18;22.30;1.00
20574;DHT22;10445;50.216;7.912;2023-07-13T12:24:49;22.30;1.00
20574;DHT22;10445;50.216;7.912;2023-07-13T12:27:21;22.20;1.00
20574;DHT22;10445;50.216;7.912;2023-07-13T12:29:53;22.10;1.00
20574;DHT22;10445;50.216;7.912;2023-07-13T12:32:26;22.20;1.00
20574;DHT22;10445;50.216;7.912;2023-07-13T12:35:13;22.10;1.00
20574;DHT22;10445;50.216;7.912;2023-07-13T12:37:43;22.30;1.00
20574;DHT22;10445;50.216;7.912;2023-07-13T12:40:16;22.30;1.00
20574;DHT22;10445;50.216;7.912;2023-07-13T12:42:47;22.30;1.00
20574;DHT22;10445;50.216;7.912;2023-07-13T12:45:19;22.30;1.00
20574;DHT22;10445;50.216;7.912;2023-07-13T12:47:50;22.30;1.00
20574;DHT22;10445;50.216;7.912;2023-07-13T12:50:20;22.30;1.00
20574;DHT22;10445;50.216;7.912;2023-07-13T12:52:51;22.10;1.00
20574;DHT22;10445;50.216;7.912;2023-07-13T12:55:22;22.00;1.00
20574;DHT22;10445;50.216;7.912;2023-07-13T12:57:52;22.10;1.00
20574;DHT22;10445;50.216;7.912;2023-07-13T13:00:24;22.20;1.00
20574;DHT22;10445;50.216;7.912;2023-07-13T13:02:56;22.30;1.00
20574;DHT22;10445;50.216;7.912;2023-07-13T13:05:47;22.30;1.00
20574;DHT22;10445;50.216;7.912;2023-07-13T13:08:16;22.30;1.00
20574;DHT22;10445;50.216;7.912;2023-07-13T13:10:46;22.20;1.00
20574;DHT22;10445;50.216;7.912;2023-07-13T13:13:14;22.10;1.00
20574;DHT22;10445;50.216;7.912;2023-07-13T13:15:43;21.90;1.00
20574;DHT22;10445;50.216;7.912;2023-07-13T13:18:16;21.90;1.00
20574;DHT22;10445;50.216;7.912;2023-07-13T13:20:45;21.80;1.00
20574;DHT22;10445;50.216;7.912;2023-07-13T13:23:15;21.90;1.00
20574;DHT22;10445;50.216;7.912;2023-07-13T13:25:49;21.80;1.00
20574;DHT22;10445;50.216;7.912;2023-07-13T13:28:20;21.80;1.00
20574;DHT22;10445;50.216;7.912;2023-07-13T13:30:50;21.80;1.00
20574;DHT22;10445;50.216;7.912;2023-07-13T13:33:20;21.70;1.00
20574;DHT22;10445;50.216;7.912;2023-07-13T13:35:49;21.70;1.00
20574;DHT22;10445;50.216;7.912;2023-07-13T13:38:20;21.60;1.00
20574;DHT22;10445;50.216;7.912;2023-07-13T13:40:50;21.60;1.00
20574;DHT22;10445;50.216;7.912;2023-07-13T13:43:21;21.70;1.00
20574;DHT22;10445;50.216;7.912;2023-07-13T13:45:55;21.80;1.00
20574;DHT22;10445;50.216;7.912;2023-07-13T13:48:33;21.90;1.00
20574;DHT22;10445;50.216;7.912;2023-07-13T13:51:06;22.10;1.00
20574;DHT22;10445;50.216;7.912;2023-07-13T13:53:37;22.20;1.00
20574;DHT22;10445;50.216;7.912;2023-07-13T13:56:08;22.30;1.00
20574;DHT22;10445;50.216;7.912;2023-07-13T13:58:37;22.40;1.00
20574;DHT22;10445;50.216;7.912;2023-07-13T14:01:11;22.40;1.00
20574;DHT22;10445;50.216;7.912;2023-07-13T14:03:41;22.40;1.00
20574;DHT22;10445;50.216;7.912;2023-07-13T14:06:12;22.40;1.00
20574;DHT22;10445;50.216;7.912;2023-07-13T14:08:41;22.30;1.00
20574;DHT22;10445;50.216;7.912;2023-07-13T14:11:13;22.30;1.00
20574;DHT22;10445;50.216;7.912;2023-07-13T14:13:44;22.30;1.00
20574;DHT22;10445;50.216;7.912;2023-07-13T14:16:16;22.20;1.00
20574;DHT22;10445;50.216;7.912;2023-07-13T14:18:46;22.20;1.00
20574;DHT22;10445;50.216;7.912;2023-07-13T14:21:16;22.10;1.00
20574;DHT22;10445;50.216;7.912;2023-07-13T14:23:45;22.20;1.00
20574;DHT22;10445;50.216;7.912;2023-07-13T14:26:19;22.10;1.00
20574;DHT22;10445;50.216;7.912;2023-07-13T14:28:50;22.00;1.00
20574;DHT22;10445;50.216;7.912;2023-07-13T14:31:19;21.90;1.00
20574;DHT22;10445;50.216;7.912;2023-07-13T14:33:48;21.90;1.00
20574;DHT22;10445;50.216;7.912;2023-07-13T14:36:28;21.70;1.00
20574;DHT22;10445;50.216;7.912;2023-07-13T14:38:58;21.70;1.00
20574;DHT22;10445;50.216;7.912;2023-07-13T14:41:28;21.80;1.00
20574;DHT22;10445;50.216;7.912;2023-07-13T14:43:57;21.80;1.00
20574;DHT22;10445;50.216;7.912;2023-07-13T14:46:28;21.80;1.00
20574;DHT22;10445;50.216;7.912;2023-07-13T14:49:02;21.80;1.00
20574;DHT22;10445;50.216;7.912;2023-07-13T14:51:31;21.80;1.00
20574;DHT22;10445;50.216;7.912;2023-07-13T14:54:03;21.90;1.00
20574;DHT22;10445;50.216;7.912;2023-07-13T14:56:33;21.90;1.00
20574;DHT22;10445;50.216;7.912;2023-07-13T14:59:02;22.00;1.00
20574;DHT22;10445;50.216;7.912;2023-07-13T15:01:32;22.10;1.00
20574;DHT22;10445;50.216;7.912;2023-07-13T15:04:01;22.30;1.00
20574;DHT22;10445;50.216;7.912;2023-07-13T15:06:30;22.50;1.00
20574;DHT22;10445;50.216;7.912;2023-07-13T15:08:59;22.60;1.00
20574;DHT22;10445;50.216;7.912;2023-07-13T15:11:30;22.60;1.00
20574;DHT22;10445;50.216;7.912;2023-07-13T15:14:00;22.50;1.00
20574;DHT22;10445;50.216;7.912;2023-07-13T15:16:30;22.40;1.00
20574;DHT22;10445;50.216;7.912;2023-07-13T15:18:58;22.40;1.00
20574;DHT22;10445;50.216;7.912;2023-07-13T15:21:27;22.30;1.00
20574;DHT22;10445;50.216;7.912;2023-07-13T15:24:01;22.20;1.00
20574;DHT22;10445;50.216;7.912;2023-07-13T15:26:31;22.20;1.00
20574;DHT22;10445;50.216;7.912;2023-07-13T15:29:02;22.20;1.00
20574;DHT22;10445;50.216;7.912;2023-07-13T15:31:32;22.30;1.00
20574;DHT22;10445;50.216;7.912;2023-07-13T15:34:01;22.30;1.00
20574;DHT22;10445;50.216;7.912;2023-07-13T15:36:29;22.50;1.00
20574;DHT22;10445;50.216;7.912;2023-07-13T15:39:00;23.00;1.00
20574;DHT22;10445;50.216;7.912;2023-07-13T15:41:29;23.20;1.00
20574;DHT22;10445;50.216;7.912;2023-07-13T15:44:04;23.30;1.00
20574;DHT22;10445;50.216;7.912;2023-07-13T15:46:36;23.30;1.00
20574;DHT22;10445;50.216;7.912;2023-07-13T15:49:09;23.20;1.00
20574;DHT22;10445;50.216;7.912;2023-07-13T15:51:38;23.00;1.00
20574;DHT22;10445;50.216;7.912;2023-07-13T15:54:13;22.80;1.00
20574;DHT22;10445;50.216;7.912;2023-07-13T15:56:42;22.90;1.00
20574;DHT22;10445;50.216;7.912;2023-07-13T15:59:13;22.80;1.00
20574;DHT22;10445;50.216;7.912;2023-07-13T16:01:42;22.70;1.00
20574;DHT22;10445;50.216;7.912;2023-07-13T16:04:13;22.60;1.00
20574;DHT22;10445;50.216;7.912;2023-07-13T16:06:42;22.60;1.00
20574;DHT22;10445;50.216;7.912;2023-07-13T16:09:17;22.70;1.00
20574;DHT22;10445;50.216;7.912;2023-07-13T16:11:46;22.60;1.00